Time;durP1;ratioP1;P1;durP2;ratioP2;P2;SDS_P1;SDS_P2;PMS_P1;PMS_P2;Temp;Humidity;BMP_temperature;BMP_pressure;BME280_temperature;BME280_humidity;BME280_pressure;Samples;Min_cycle;Max_cycle;Signal;HPM_P1;HPM_P2
2023/09/14 00:01:59;;;;;;;12.70;7.10;;;;;;;17.50;100.00;100538.17;217814;1288;142024;-88
2023/09/14 00:07:00;;;;;;;12.60;7.00;;;;;;;17.53;100.00;100537.40;218306;1289;140104;-87
2023/09/14 00:12:00;;;;;;;11.80;6.20;;;;;;;17.57;100.00;100547.20;217685;1289;141380;-88
2023/09/14 00:17:00;;;;;;;11.70;6.10;;;;;;;17.61;100.00;100545.38;218511;1288;96056;-89
2023/09/14 00:22:02;;;;;;;9.90;5.90;;;;;;;17.64;100.00;100545.49;217861;1288;141751;-88
2023/09/14 00:27:03;;;;;;;8.70;5.10;;;;;;;17.65;100.00;100549.45;218514;1288;139056;-88
2023/09/14 00:32:04;;;;;;;10.10;5.20;;;;;;;17.69;100.00;100557.98;217721;1288;143325;-89
2023/09/14 00:37:04;;;;;;;9.70;4.60;;;;;;;17.72;100.00;100566.04;218371;1288;139429;-89
2023/09/14 00:42:05;;;;;;;9.30;4.50;;;;;;;17.74;100.00;100574.52;217892;1288;141537;-89
2023/09/14 00:47:05;;;;;;;9.00;4.90;;;;;;;17.76;100.00;100574.88;218330;1288;96004;-88
2023/09/14 00:52:06;;;;;;;7.60;4.10;;;;;;;17.78;100.00;100577.17;217877;1288;140957;-89
2023/09/14 00:57:06;;;;;;;7.60;4.00;;;;;;;17.80;100.00;100581.03;218376;1288;139504;-88
2023/09/14 01:02:07;;;;;;;10.70;4.10;;;;;;;17.81;100.00;100582.60;217966;1288;142352;-88
2023/09/14 01:07:08;;;;;;;9.40;3.40;;;;;;;17.82;100.00;100590.55;218357;1288;139793;-89
2023/09/14 01:12:09;;;;;;;8.50;3.50;;;;;;;17.83;100.00;100598.16;217778;1288;142442;-90
2023/09/14 01:17:31;;;;;;;6.10;3.30;;;;;;;17.83;100.00;100604.92;218421;1288;95999;-88
2023/09/14 01:22:50;;;;;;;8.80;3.60;;;;;;;17.81;100.00;100609.41;217931;1288;140900;-87
2023/09/14 01:27:50;;;;;;;4.80;2.70;;;;;;;17.78;100.00;100618.20;218192;1289;140514;-87
2023/09/14 01:32:50;;;;;;;6.00;2.60;;;;;;;17.74;100.00;100627.27;217854;1288;141222;-88
2023/09/14 01:37:52;;;;;;;4.20;2.00;;;;;;;17.65;100.00;100632.79;218405;1288;140924;-88
2023/09/14 01:42:54;;;;;;;4.10;2.00;;;;;;;17.56;100.00;100635.32;217829;1288;143290;-89
2023/09/14 01:47:55;;;;;;;6.00;1.80;;;;;;;17.46;100.00;100636.57;218401;1290;139160;-89
2023/09/14 01:52:57;;;;;;;5.50;2.30;;;;;;;17.37;100.00;100641.45;217893;1288;142573;-89
2023/09/14 01:57:57;;;;;;;5.40;1.90;;;;;;;17.30;100.00;100654.79;218392;1288;138960;-89
2023/09/14 02:02:58;;;;;;;4.80;2.10;;;;;;;17.22;100.00;100663.16;217847;1288;141848;-88
2023/09/14 02:07:58;;;;;;;6.60;3.00;;;;;;;17.15;100.00;100671.90;218395;1288;139400;-88
2023/09/14 02:12:59;;;;;;;4.80;1.80;;;;;;;17.07;100.00;100672.08;217841;1289;140958;-87
2023/09/14 02:17:59;;;;;;;4.50;1.60;;;;;;;16.99;100.00;100676.70;218516;1288;139429;-88
2023/09/14 02:22:59;;;;;;;3.90;1.60;;;;;;;16.90;100.00;100667.09;217992;1290;141190;-89
2023/09/14 02:28:00;;;;;;;5.20;1.80;;;;;;;16.85;100.00;100668.42;218244;1288;138811;-88
2023/09/14 02:33:00;;;;;;;5.90;1.90;;;;;;;16.82;100.00;100674.09;217643;1288;141154;-88
2023/09/14 02:38:01;;;;;;;4.70;1.90;;;;;;;16.78;100.00;100680.58;218238;1288;139544;-89
2023/09/14 02:43:02;;;;;;;5.80;2.30;;;;;;;16.72;100.00;100685.88;218041;1289;141352;-88
2023/09/14 02:48:02;;;;;;;6.20;2.10;;;;;;;16.64;100.00;100689.05;218801;1288;139205;-89
2023/09/14 02:53:03;;;;;;;6.70;2.40;;;;;;;16.55;100.00;100689.84;218002;1288;140699;-89
2023/09/14 02:58:07;;;;;;;7.50;2.40;;;;;;;16.45;100.00;100695.81;218383;1288;138965;-88
2023/09/14 03:03:09;;;;;;;7.40;2.40;;;;;;;16.36;100.00;100702.27;217879;1288;141171;-89
2023/09/14 03:08:10;;;;;;;5.70;2.10;;;;;;;16.28;100.00;100709.09;218823;1290;139166;-87
2023/09/14 03:13:10;;;;;;;8.80;2.60;;;;;;;16.19;100.00;100713.45;217834;1290;140893;-88
2023/09/14 03:18:10;;;;;;;7.10;2.60;;;;;;;16.10;100.00;100717.30;218215;1290;139131;-88
2023/09/14 03:23:11;;;;;;;8.50;2.60;;;;;;;16.00;100.00;100721.42;217879;1289;141311;-89
2023/09/14 03:28:12;;;;;;;8.10;3.40;;;;;;;15.92;100.00;100722.02;218426;1288;138812;-88
2023/09/14 03:33:12;;;;;;;9.10;2.80;;;;;;;15.86;100.00;100721.52;217910;1292;142299;-87
2023/09/14 03:38:15;;;;;;;9.60;3.30;;;;;;;15.81;100.00;100720.59;218310;1291;139052;-88
2023/09/14 03:43:16;;;;;;;12.30;3.90;;;;;;;15.75;100.00;100721.88;217861;1288;141608;-86
2023/09/14 03:48:16;;;;;;;10.00;4.60;;;;;;;15.69;100.00;100727.16;218176;1288;140013;-88
2023/09/14 03:53:17;;;;;;;10.50;4.10;;;;;;;15.63;100.00;100735.27;217861;1290;143137;-85
2023/09/14 03:58:17;;;;;;;10.50;4.00;;;;;;;15.58;100.00;100746.95;218514;1289;96155;-88
2023/09/14 04:03:17;;;;;;;10.70;3.70;;;;;;;15.55;100.00;100755.60;217930;1288;141667;-88
2023/09/14 04:08:18;;;;;;;12.90;5.00;;;;;;;15.54;100.00;100765.90;218429;1290;139360;-88
2023/09/14 04:13:32;;;;;;;14.20;6.00;;;;;;;15.52;100.00;100773.44;217831;1288;142091;-87
2023/09/14 04:18:38;;;;;;;12.30;6.00;;;;;;;15.51;100.00;100773.77;218353;1289;140253;-88
2023/09/14 04:23:38;;;;;;;12.00;6.30;;;;;;;15.52;100.00;100779.15;217764;1291;142870;-87
2023/09/14 04:28:38;;;;;;;11.50;6.20;;;;;;;15.51;100.00;100783.83;218554;1288;95938;-88
2023/09/14 04:33:41;;;;;;;15.90;7.00;;;;;;;15.51;100.00;100777.65;217890;1288;141437;-87
2023/09/14 04:38:41;;;;;;;14.80;6.80;;;;;;;15.51;100.00;100781.22;218395;1288;139210;-88
2023/09/14 04:43:42;;;;;;;15.00;7.30;;;;;;;15.51;100.00;100784.06;217891;1288;141262;-87
2023/09/14 04:48:42;;;;;;;12.20;7.30;;;;;;;15.52;100.00;100786.35;218372;1290;139358;-87
2023/09/14 04:53:43;;;;;;;14.50;7.70;;;;;;;15.52;100.00;100792.63;217848;1292;141379;-87
2023/09/14 04:58:43;;;;;;;16.30;7.40;;;;;;;15.54;100.00;100799.27;218458;1288;95845;-87
2023/09/14 05:03:44;;;;;;;17.30;8.70;;;;;;;15.57;100.00;100805.38;217932;1288;142669;-86
2023/09/14 05:08:45;;;;;;;13.40;8.40;;;;;;;15.59;100.00;100812.42;218365;1288;138973;-84
2023/09/14 05:13:45;;;;;;;18.30;8.90;;;;;;;15.58;100.00;100814.09;217532;1288;145337;-84
2023/09/14 05:18:46;;;;;;;16.10;8.50;;;;;;;15.58;100.00;100821.05;218294;1288;139168;-85
2023/09/14 05:23:46;;;;;;;14.50;8.80;;;;;;;15.62;100.00;100828.10;217701;1288;142624;-85
2023/09/14 05:28:47;;;;;;;16.00;8.90;;;;;;;15.66;100.00;100828.65;218260;1288;96027;-85
2023/09/14 05:33:47;;;;;;;15.60;8.30;;;;;;;15.69;100.00;100838.16;217684;1288;142389;-85
2023/09/14 05:38:48;;;;;;;17.50;9.20;;;;;;;15.76;100.00;100840.44;218252;1288;139565;-84
2023/09/14 05:43:48;;;;;;;14.60;8.40;;;;;;;15.80;100.00;100841.05;217891;1290;141150;-84
2023/09/14 05:48:49;;;;;;;15.10;7.40;;;;;;;15.80;100.00;100843.83;218424;1288;139576;-85
2023/09/14 05:53:49;;;;;;;14.90;8.70;;;;;;;15.80;100.00;100845.89;217691;1288;142368;-85
2023/09/14 05:58:50;;;;;;;12.80;8.00;;;;;;;15.86;100.00;100854.20;218510;1291;95929;-85
2023/09/14 06:03:50;;;;;;;13.50;7.90;;;;;;;15.94;100.00;100860.75;217793;1288;140965;-85
2023/09/14 06:08:51;;;;;;;15.00;8.10;;;;;;;15.98;100.00;100861.04;218349;1288;139200;-85
2023/09/14 06:13:51;;;;;;;15.30;8.70;;;;;;;16.03;100.00;100864.27;217828;1293;141839;-86
2023/09/14 06:18:52;;;;;;;14.00;8.60;;;;;;;16.13;100.00;100871.60;218379;1288;139225;-84
2023/09/14 06:23:52;;;;;;;15.40;8.30;;;;;;;16.22;100.00;100874.98;217691;1288;142540;-85
2023/09/14 06:28:52;;;;;;;15.10;8.50;;;;;;;16.31;100.00;100877.80;218404;1288;96088;-85
2023/09/14 06:33:53;;;;;;;16.30;8.90;;;;;;;16.43;100.00;100881.48;217757;1291;141965;-85
2023/09/14 06:39:02;;;;;;;17.50;9.20;;;;;;;16.56;100.00;100887.85;218272;1288;139285;-86
2023/09/14 06:44:02;;;;;;;12.80;7.60;;;;;;;16.69;100.00;100887.36;217659;1291;140675;-86
2023/09/14 06:49:03;;;;;;;13.80;8.20;;;;;;;16.81;100.00;100891.65;218286;1288;139231;-84
2023/09/14 06:54:04;;;;;;;12.40;6.90;;;;;;;16.88;100.00;100893.81;217798;1291;141537;-86
2023/09/14 06:59:05;;;;;;;14.20;8.70;;;;;;;17.03;100.00;100901.74;218414;1288;96090;-86
2023/09/14 07:04:05;;;;;;;15.60;8.10;;;;;;;17.23;100.00;100911.51;217855;1288;138919;-86
2023/09/14 07:09:06;;;;;;;13.20;7.50;;;;;;;17.40;100.00;100918.06;217784;1288;142068;-84
2023/09/14 07:14:06;;;;;;;12.10;7.50;;;;;;;17.56;100.00;100927.23;218329;1288;139810;-86
2023/09/14 07:19:07;;;;;;;18.00;8.40;;;;;;;17.71;100.00;100937.13;217646;1293;141130;-86
2023/09/14 07:24:08;;;;;;;13.80;7.80;;;;;;;17.78;100.00;100941.73;218119;1293;139876;-84
2023/09/14 07:29:08;;;;;;;13.90;7.50;;;;;;;17.87;100.00;100942.36;217857;1289;142029;-85
2023/09/14 07:34:08;;;;;;;15.50;7.20;;;;;;;18.02;100.00;100943.16;218320;1292;138886;-86
2023/09/14 07:39:09;;;;;;;12.10;7.70;;;;;;;18.17;100.00;100940.75;217885;1292;142068;-86
2023/09/14 07:44:09;;;;;;;16.30;9.00;;;;;;;18.29;100.00;100943.17;218290;1288;139509;-88
2023/09/14 07:49:10;;;;;;;11.20;6.70;;;;;;;18.43;100.00;100954.80;217841;1289;142577;-86
2023/09/14 07:54:10;;;;;;;14.40;7.20;;;;;;;18.55;100.00;100963.88;218315;1289;139842;-88
2023/09/14 07:59:11;;;;;;;13.70;6.70;;;;;;;18.71;100.00;100961.04;217563;1288;141556;-87
2023/09/14 08:04:12;;;;;;;14.50;7.50;;;;;;;18.95;99.94;100967.64;217947;1289;139462;-88
2023/09/14 08:09:12;;;;;;;15.70;7.50;;;;;;;19.15;98.85;100967.48;217605;1288;140532;-88
2023/09/14 08:14:13;;;;;;;15.20;6.80;;;;;;;19.33;99.06;100967.86;218223;1289;139180;-88
2023/09/14 08:19:13;;;;;;;11.30;7.30;;;;;;;19.57;98.34;100964.67;217937;1292;141263;-87
2023/09/14 08:24:13;;;;;;;11.10;6.00;;;;;;;19.73;96.80;100969.11;218234;1289;139280;-88
2023/09/14 08:29:15;;;;;;;12.60;6.10;;;;;;;19.91;96.93;100967.84;217886;1290;142009;-88
2023/09/14 08:34:15;;;;;;;13.50;6.90;;;;;;;20.09;95.37;100970.93;218302;1288;139299;-85
2023/09/14 08:39:16;;;;;;;10.50;5.40;;;;;;;20.29;94.80;100972.95;217525;1291;141247;-89
2023/09/14 08:44:19;;;;;;;10.90;6.00;;;;;;;20.56;95.30;100978.54;218183;1292;139851;-86
2023/09/14 08:49:24;;;;;;;10.10;5.70;;;;;;;20.97;94.66;100982.14;217718;1292;142665;-86
2023/09/14 08:54:25;;;;;;;10.20;5.30;;;;;;;21.33;92.87;100988.34;217869;1292;141114;-86
2023/09/14 08:59:55;;;;;;;13.10;5.70;;;;;;;21.85;92.41;100983.02;217352;1293;141033;-87
2023/09/14 09:04:55;;;;;;;10.20;4.90;;;;;;;22.62;90.61;100991.73;217918;1289;96251;-87
2023/09/14 09:09:56;;;;;;;11.40;4.80;;;;;;;23.36;88.42;100995.72;217521;1292;140584;-87
2023/09/14 09:14:57;;;;;;;24.70;6.30;;;;;;;24.15;85.12;100997.39;218186;1289;139243;-88
2023/09/14 09:20:24;;;;;;;12.00;5.10;;;;;;;24.85;82.01;100998.10;217822;1288;141906;-87
2023/09/14 09:25:25;;;;;;;9.20;4.70;;;;;;;25.51;77.66;100994.33;218318;1289;139605;-86
2023/09/14 09:30:30;;;;;;;11.60;5.20;;;;;;;26.16;76.88;100991.48;217815;1289;142343;-86
2023/09/14 09:35:31;;;;;;;11.40;5.00;;;;;;;26.63;72.33;100992.61;218118;1292;139000;-87
2023/09/14 09:40:33;;;;;;;9.80;4.80;;;;;;;26.80;71.92;100990.99;217996;1288;143048;-86
2023/09/14 09:45:34;;;;;;;9.90;4.40;;;;;;;27.12;70.08;100997.96;218266;1289;139738;-87
2023/09/14 09:50:35;;;;;;;9.00;3.70;;;;;;;27.14;67.46;101001.16;217907;1289;140970;-87
2023/09/14 09:55:35;;;;;;;8.80;4.70;;;;;;;27.41;66.55;101006.48;218449;1288;138176;-87
2023/09/14 10:00:39;;;;;;;9.40;4.30;;;;;;;27.45;64.49;101007.91;217623;1289;140430;-88
2023/09/14 10:05:40;;;;;;;10.10;4.70;;;;;;;27.44;64.07;101009.33;218228;1289;138133;-87
2023/09/14 10:10:41;;;;;;;9.90;4.20;;;;;;;27.37;62.94;101008.63;217900;1289;141690;-86
2023/09/14 10:15:42;;;;;;;10.50;3.70;;;;;;;27.58;63.78;101006.70;218295;1289;138487;-86
2023/09/14 10:20:45;;;;;;;10.50;4.20;;;;;;;27.84;61.09;101002.97;217716;1290;139992;-87
2023/09/14 10:25:46;;;;;;;7.40;4.10;;;;;;;27.87;61.00;100999.98;218222;1289;138837;-87
2023/09/14 10:30:48;;;;;;;10.20;3.40;;;;;;;28.07;61.31;100998.52;217641;1288;142222;-88
2023/09/14 10:35:50;;;;;;;9.00;4.10;;;;;;;28.57;59.68;100985.73;218223;1288;139893;-87
2023/09/14 10:40:53;;;;;;;8.10;3.40;;;;;;;29.01;58.00;100984.58;217827;1289;140283;-87
2023/09/14 10:46:00;;;;;;;11.10;3.70;;;;;;;29.13;56.59;100987.78;218074;1293;138689;-87
2023/09/14 10:51:00;;;;;;;9.50;3.60;;;;;;;29.29;56.20;100985.05;217699;1289;140666;-87
2023/09/14 10:56:02;;;;;;;7.80;3.40;;;;;;;29.45;54.75;100990.20;218321;1291;138891;-87
2023/09/14 11:01:09;;;;;;;6.90;3.00;;;;;;;29.44;55.10;100985.95;217619;1290;154747;-88
2023/09/14 11:06:10;;;;;;;9.40;3.40;;;;;;;29.72;53.25;100990.05;218249;1289;138554;-88
2023/09/14 11:11:10;;;;;;;7.70;3.30;;;;;;;29.65;53.52;100987.20;217815;1288;143697;-88
2023/09/14 11:16:13;;;;;;;6.70;3.10;;;;;;;29.61;52.38;100989.16;218363;1290;138773;-87
2023/09/14 11:21:32;;;;;;;7.00;2.80;;;;;;;29.72;52.41;100986.63;217709;1288;140156;-87
2023/09/14 11:26:34;;;;;;;6.50;3.10;;;;;;;29.86;51.96;100986.82;218105;1288;138188;-87
2023/09/14 11:31:39;;;;;;;6.80;3.50;;;;;;;29.86;51.29;100984.81;217659;1288;140422;-87
2023/09/14 11:36:40;;;;;;;7.20;2.80;;;;;;;29.47;50.54;100982.02;218211;1288;139459;-88
2023/09/14 11:41:40;;;;;;;7.10;3.30;;;;;;;29.16;50.95;100982.15;217735;1288;140117;-87
2023/09/14 11:46:48;;;;;;;6.10;2.80;;;;;;;28.98;50.81;100984.22;218431;1289;97147;-87
2023/09/14 11:51:51;;;;;;;8.60;3.60;;;;;;;28.71;50.47;100983.46;217364;1288;139818;-87
2023/09/14 11:56:58;;;;;;;9.70;4.20;;;;;;;28.52;51.29;100978.59;218221;1288;138955;-87
2023/09/14 12:02:03;;;;;;;7.40;3.20;;;;;;;28.41;51.02;100987.36;217800;1289;140894;-87
2023/09/14 12:07:03;;;;;;;9.60;2.80;;;;;;;28.34;51.31;100983.52;218181;1288;138889;-87
2023/09/14 12:12:04;;;;;;;8.80;3.20;;;;;;;28.23;51.74;100983.97;217794;1288;141068;-87
2023/09/14 12:17:18;;;;;;;6.90;3.00;;;;;;;27.71;50.40;100994.34;218346;1288;96170;-87
2023/09/14 12:22:21;;;;;;;7.60;2.80;;;;;;;27.43;51.22;101000.75;217789;1288;140233;-86
2023/09/14 12:27:22;;;;;;;8.90;3.40;;;;;;;27.32;51.00;100994.52;218203;1288;138380;-87
2023/09/14 12:32:22;;;;;;;7.40;2.90;;;;;;;27.17;51.25;100991.02;217809;1288;141414;-87
2023/09/14 12:37:23;;;;;;;7.30;3.00;;;;;;;27.10;51.67;100990.06;218064;1288;138981;-86
2023/09/14 12:42:24;;;;;;;6.00;3.00;;;;;;;27.14;51.55;100985.83;217688;1288;141168;-86
2023/09/14 12:47:25;;;;;;;8.20;3.20;;;;;;;27.20;51.88;100980.82;218418;1288;96108;-86
2023/09/14 12:52:28;;;;;;;6.10;2.90;;;;;;;27.23;52.50;100984.67;217702;1290;140195;-86
2023/09/14 12:57:34;;;;;;;7.10;3.00;;;;;;;27.22;51.62;100981.84;218185;1290;138682;-85
2023/09/14 13:02:35;;;;;;;5.90;2.80;;;;;;;26.97;50.89;100982.23;217592;1288;141212;-86
2023/09/14 13:07:36;;;;;;;6.90;2.70;;;;;;;26.68;51.95;100984.77;218335;1288;139010;-86
2023/09/14 13:12:41;;;;;;;6.10;3.10;;;;;;;26.44;52.15;100985.79;217621;1289;140685;-86
2023/09/14 13:17:42;;;;;;;6.90;3.00;;;;;;;26.21;53.35;100991.98;218229;1289;138700;-85
2023/09/14 13:22:42;;;;;;;6.50;2.40;;;;;;;25.99;53.04;100994.84;217753;1288;141767;-86
2023/09/14 13:27:43;;;;;;;6.20;2.90;;;;;;;25.86;54.66;100992.23;218201;1289;138274;-86
2023/09/14 13:32:48;;;;;;;5.70;2.80;;;;;;;25.58;54.48;100999.29;217668;1288;140828;-86
2023/09/14 13:37:49;;;;;;;8.80;3.10;;;;;;;25.33;54.98;100997.09;218024;1288;138600;-87
2023/09/14 13:42:57;;;;;;;7.50;2.70;;;;;;;25.06;55.38;100994.13;217763;1288;141758;-86
2023/09/14 13:47:57;;;;;;;6.60;2.10;;;;;;;24.81;55.30;100989.09;218184;1288;138636;-85
2023/09/14 13:52:57;;;;;;;5.80;2.20;;;;;;;24.58;54.38;100978.14;217764;1289;139844;-86
2023/09/14 13:58:01;;;;;;;7.70;3.20;;;;;;;24.41;55.21;100976.02;218352;1288;139490;-86
2023/09/14 14:03:09;;;;;;;5.80;2.50;;;;;;;24.36;55.70;100967.27;217745;1288;140451;-86
2023/09/14 14:08:10;;;;;;;6.80;2.90;;;;;;;24.40;55.44;100964.73;218002;1288;138889;-84
2023/09/14 14:13:10;;;;;;;9.00;2.40;;;;;;;24.35;54.77;100969.52;217616;1289;142545;-86
2023/09/14 14:18:11;;;;;;;7.40;2.70;;;;;;;24.19;55.49;100973.20;218353;1288;138233;-85
2023/09/14 14:23:11;;;;;;;5.80;2.60;;;;;;;24.04;56.29;100976.17;217901;1288;140292;-87
2023/09/14 14:28:11;;;;;;;4.50;2.00;;;;;;;23.98;57.19;100982.00;218290;1288;138294;-85
2023/09/14 14:33:12;;;;;;;9.30;2.60;;;;;;;23.89;56.53;100977.83;217851;1288;141751;-86
2023/09/14 14:38:12;;;;;;;8.30;2.60;;;;;;;23.84;57.31;100976.27;218168;1288;139148;-86
2023/09/14 14:43:13;;;;;;;5.90;2.20;;;;;;;23.86;57.09;100976.04;217748;1288;139991;-83
2023/09/14 14:48:13;;;;;;;7.20;2.70;;;;;;;23.86;56.94;100975.59;218263;1289;139542;-86
2023/09/14 14:53:15;;;;;;;8.50;2.40;;;;;;;23.86;58.20;100979.41;217896;1288;140776;-86
2023/09/14 14:58:23;;;;;;;5.60;2.50;;;;;;;23.81;58.69;100979.58;218242;1288;137870;-86
2023/09/14 15:03:26;;;;;;;5.10;1.90;;;;;;;23.75;59.81;100977.70;217735;1288;140854;-86
2023/09/14 15:08:27;;;;;;;5.80;2.50;;;;;;;23.61;59.41;100978.69;218234;1291;139122;-86
2023/09/14 15:13:27;;;;;;;4.20;1.90;;;;;;;23.43;59.09;100985.14;217719;1288;140319;-86
2023/09/14 15:18:31;;;;;;;5.00;2.10;;;;;;;23.24;59.48;100990.03;218256;1288;139278;-86
2023/09/14 15:23:32;;;;;;;6.50;2.60;;;;;;;23.06;58.62;100992.73;217588;1289;140624;-86
2023/09/14 15:28:32;;;;;;;6.60;2.50;;;;;;;22.84;57.80;100996.80;218429;1288;97151;-85
2023/09/14 15:33:33;;;;;;;4.80;2.40;;;;;;;22.61;58.16;100995.55;217859;1288;140783;-86
2023/09/14 15:38:33;;;;;;;5.50;2.50;;;;;;;22.44;59.47;101003.39;218402;1288;138922;-85
2023/09/14 15:43:33;;;;;;;7.60;2.80;;;;;;;22.26;59.09;101007.65;217743;1289;139066;-86
2023/09/14 15:48:34;;;;;;;5.20;2.40;;;;;;;22.14;60.85;101003.44;218500;1288;138697;-85
2023/09/14 15:53:36;;;;;;;8.20;2.70;;;;;;;21.97;59.35;101010.04;217720;1288;140060;-85
2023/09/14 15:58:36;;;;;;;5.60;2.80;;;;;;;21.76;59.23;101016.20;218422;1290;96124;-86
2023/09/14 16:03:37;;;;;;;7.40;3.30;;;;;;;21.60;59.08;101018.80;217841;1288;139412;-85
2023/09/14 16:08:37;;;;;;;7.20;2.90;;;;;;;21.44;58.71;101025.94;218207;1288;138485;-85
2023/09/14 16:13:38;;;;;;;7.40;2.90;;;;;;;21.31;59.10;101027.84;217804;1288;140388;-87
2023/09/14 16:18:38;;;;;;;5.70;2.50;;;;;;;21.19;59.71;101033.63;218230;1288;138347;-86
2023/09/14 16:23:39;;;;;;;6.30;2.90;;;;;;;21.06;59.72;101033.45;217794;1288;140932;-86
2023/09/14 16:28:41;;;;;;;8.70;3.20;;;;;;;20.95;60.34;101034.08;218428;1288;96712;-85
2023/09/14 16:33:41;;;;;;;7.00;3.20;;;;;;;20.80;61.23;101034.06;217612;1291;141535;-86
2023/09/14 16:38:42;;;;;;;8.70;3.40;;;;;;;20.67;61.85;101029.38;218168;1288;138728;-86
2023/09/14 16:43:43;;;;;;;8.20;3.10;;;;;;;20.51;62.34;101026.98;217711;1290;140642;-86
2023/09/14 16:48:47;;;;;;;6.00;2.70;;;;;;;20.36;63.21;101029.36;218335;1288;138282;-87
2023/09/14 16:53:47;;;;;;;7.90;3.40;;;;;;;20.19;64.03;101032.80;217732;1289;141804;-87
2023/09/14 16:58:48;;;;;;;6.50;3.00;;;;;;;20.06;64.91;101040.30;218420;1288;95797;-87
2023/09/14 17:03:50;;;;;;;7.50;3.00;;;;;;;19.96;65.92;101040.06;217832;1288;142217;-87
2023/09/14 17:08:50;;;;;;;7.00;3.10;;;;;;;19.85;66.49;101040.87;218360;1288;138862;-86
2023/09/14 17:13:51;;;;;;;6.80;2.90;;;;;;;19.70;66.81;101046.95;217806;1288;141428;-86
2023/09/14 17:18:51;;;;;;;7.30;2.80;;;;;;;19.55;67.57;101048.33;218265;1288;138886;-86
2023/09/14 17:23:52;;;;;;;12.60;3.90;;;;;;;19.40;68.19;101055.90;217702;1288;141389;-87
2023/09/14 17:28:53;;;;;;;10.10;3.90;;;;;;;19.22;68.94;101060.60;218296;1288;96237;-87
2023/09/14 17:33:53;;;;;;;8.40;3.70;;;;;;;19.08;70.05;101066.84;217754;1288;141541;-87
2023/09/14 17:38:53;;;;;;;8.00;3.40;;;;;;;18.97;70.99;101067.40;218401;1288;138542;-87
2023/09/14 17:43:54;;;;;;;11.20;3.70;;;;;;;18.89;71.54;101073.96;217938;1288;139785;-89
2023/09/14 17:48:58;;;;;;;10.20;4.00;;;;;;;18.77;72.05;101075.29;218394;1288;139678;-89
2023/09/14 17:53:58;;;;;;;9.00;3.50;;;;;;;18.67;73.00;101073.51;217848;1291;140311;-90
2023/09/14 17:59:04;;;;;;;7.90;3.00;;;;;;;18.58;73.40;101079.66;218520;1288;96745;-89
2023/09/14 18:04:05;;;;;;;9.50;3.30;;;;;;;18.46;74.14;101079.55;217743;1291;140556;-89
2023/09/14 18:09:06;;;;;;;9.10;3.70;;;;;;;18.38;74.64;101085.69;217927;1288;141848;-87
2023/09/14 18:14:06;;;;;;;11.40;4.80;;;;;;;18.27;75.06;101091.67;218411;1288;139556;-88
2023/09/14 18:19:07;;;;;;;13.10;4.60;;;;;;;18.17;75.81;101094.23;217827;1288;141732;-88
2023/09/14 18:24:08;;;;;;;10.70;3.60;;;;;;;18.07;76.39;101098.05;218387;1288;139044;-89
2023/09/14 18:29:10;;;;;;;6.70;3.50;;;;;;;17.97;76.92;101100.77;218082;1288;141511;-88
2023/09/14 18:34:11;;;;;;;8.90;3.30;;;;;;;17.82;77.37;101105.26;218244;1288;139592;-88
2023/09/14 18:39:14;;;;;;;12.30;5.60;;;;;;;17.66;78.48;101106.66;217716;1288;140858;-89
2023/09/14 18:44:17;;;;;;;11.50;3.90;;;;;;;17.46;79.23;101115.23;218688;1288;137928;-88
2023/09/14 18:49:19;;;;;;;9.40;4.50;;;;;;;17.37;80.10;101118.52;217694;1289;140585;-88
2023/09/14 18:54:20;;;;;;;8.40;3.60;;;;;;;17.31;80.62;101125.13;218234;1288;139079;-88
2023/09/14 18:59:20;;;;;;;10.10;3.50;;;;;;;17.23;81.16;101129.77;217831;1288;142676;-88
2023/09/14 19:04:23;;;;;;;11.00;4.30;;;;;;;17.09;81.78;101132.63;218254;1288;140669;-89
2023/09/14 19:09:24;;;;;;;11.80;3.90;;;;;;;16.99;82.38;101126.95;217785;1289;143000;-88
2023/09/14 19:14:24;;;;;;;8.70;4.00;;;;;;;16.87;82.66;101132.80;218516;1288;138503;-89
2023/09/14 19:19:25;;;;;;;10.50;4.10;;;;;;;16.75;83.47;101133.63;217747;1288;141563;-89
2023/09/14 19:24:25;;;;;;;11.90;4.30;;;;;;;16.61;84.16;101132.30;218266;1290;139679;-88
2023/09/14 19:29:26;;;;;;;9.50;4.40;;;;;;;16.48;84.82;101133.13;217751;1288;141804;-89
2023/09/14 19:34:27;;;;;;;11.10;4.40;;;;;;;16.36;85.28;101135.96;218317;1288;138700;-88
2023/09/14 19:39:27;;;;;;;12.10;4.60;;;;;;;16.31;85.65;101142.73;217830;1288;140723;-89
2023/09/14 19:44:27;;;;;;;7.90;3.60;;;;;;;16.23;86.39;101147.01;218383;1288;139427;-89
2023/09/14 19:49:28;;;;;;;10.30;4.30;;;;;;;16.15;86.73;101149.79;217894;1288;140923;-89
2023/09/14 19:54:29;;;;;;;12.50;4.40;;;;;;;16.05;86.93;101156.29;218086;1289;139526;-88
2023/09/14 19:59:29;;;;;;;12.10;4.50;;;;;;;15.90;87.90;101155.11;217729;1289;141271;-88
2023/09/14 20:04:34;;;;;;;13.10;4.30;;;;;;;15.74;88.12;101156.34;218144;1291;138781;-88
2023/09/14 20:09:35;;;;;;;13.00;4.50;;;;;;;15.62;88.62;101157.35;217868;1289;142998;-88
2023/09/14 20:14:36;;;;;;;7.80;3.90;;;;;;;15.47;89.24;101160.48;218282;1289;139145;-88
2023/09/14 20:19:36;;;;;;;8.00;4.00;;;;;;;15.38;89.75;101155.77;217881;1288;141367;-88
2023/09/14 20:24:50;;;;;;;11.40;4.60;;;;;;;15.28;90.10;101164.11;218436;1288;140084;-88
2023/09/14 20:29:51;;;;;;;16.70;5.10;;;;;;;15.22;90.64;101164.25;217754;1288;140725;-88
2023/09/14 20:34:51;;;;;;;10.00;4.00;;;;;;;15.09;90.88;101160.23;218287;1288;95966;-89
2023/09/14 20:39:52;;;;;;;11.10;4.10;;;;;;;14.96;91.50;101158.74;217855;1288;140598;-88
2023/09/14 20:44:56;;;;;;;8.90;4.00;;;;;;;14.83;92.11;101159.00;218266;1288;139029;-88
2023/09/14 20:49:57;;;;;;;9.50;3.80;;;;;;;14.77;92.61;101157.85;217748;1288;140459;-88
2023/09/14 20:54:58;;;;;;;10.00;4.40;;;;;;;14.72;92.45;101165.81;218336;1288;139823;-89
2023/09/14 20:59:59;;;;;;;9.80;4.50;;;;;;;14.64;92.96;101171.71;217802;1288;141243;-90
2023/09/14 21:05:00;;;;;;;12.30;4.10;;;;;;;14.54;92.87;101174.73;218369;1288;96606;-88
2023/09/14 21:10:01;;;;;;;11.10;5.40;;;;;;;14.46;93.37;101174.05;217934;1288;141297;-88
2023/09/14 21:15:02;;;;;;;10.20;4.00;;;;;;;14.37;93.85;101180.70;218528;1288;139386;-89
2023/09/14 21:20:03;;;;;;;10.30;3.90;;;;;;;14.31;93.85;101186.21;217907;1290;140154;-89
2023/09/14 21:25:04;;;;;;;9.50;3.60;;;;;;;14.25;94.94;101190.19;218494;1288;139511;-88
2023/09/14 21:30:06;;;;;;;9.90;4.60;;;;;;;14.18;95.21;101191.60;217807;1288;142490;-89
2023/09/14 21:35:08;;;;;;;9.60;4.20;;;;;;;14.09;95.48;101190.48;218435;1288;96194;-89
2023/09/14 21:40:09;;;;;;;12.30;4.70;;;;;;;14.02;96.48;101189.06;217776;1289;140894;-89
2023/09/14 21:45:09;;;;;;;10.90;4.40;;;;;;;13.96;96.44;101195.88;218421;1288;138979;-90
2023/09/14 21:50:11;;;;;;;10.30;4.20;;;;;;;13.86;96.76;101195.64;217743;1288;141183;-89
2023/09/14 21:55:11;;;;;;;11.00;4.30;;;;;;;13.85;96.88;101194.84;218307;1288;139889;-89
2023/09/14 22:00:13;;;;;;;9.30;4.30;;;;;;;13.83;97.12;101200.52;217793;1288;142796;-89
2023/09/14 22:05:13;;;;;;;11.00;4.40;;;;;;;13.82;97.34;101195.83;218433;1288;105282;-89
2023/09/14 22:10:14;;;;;;;9.80;4.80;;;;;;;13.78;98.39;101195.95;217796;1288;141393;-89
2023/09/14 22:15:15;;;;;;;13.10;5.30;;;;;;;13.74;98.20;101196.94;218161;1288;139864;-89
2023/09/14 22:20:18;;;;;;;10.90;5.30;;;;;;;13.71;98.88;101199.83;217890;1291;142936;-89
2023/09/14 22:25:19;;;;;;;8.80;4.70;;;;;;;13.66;99.22;101200.09;218342;1288;140296;-89
2023/09/14 22:30:19;;;;;;;9.30;4.60;;;;;;;13.63;99.12;101198.48;217682;1289;140934;-88
2023/09/14 22:35:20;;;;;;;10.00;5.30;;;;;;;13.59;99.14;101205.30;218432;1288;95952;-89
2023/09/14 22:40:21;;;;;;;10.00;4.70;;;;;;;13.57;99.65;101209.46;217577;1288;141491;-90